sensor_id;sensor_type;location;lat;lon;timestamp;temperature;humidity
48768;DHT22;34933;40.968;14.538;2023-06-14T00:01:54;19.20;99.90
48768;DHT22;34933;40.968;14.538;2023-06-14T00:04:39;19.20;99.90
48768;DHT22;34933;40.968;14.538;2023-06-14T00:07:36;19.20;99.90
48768;DHT22;34933;40.968;14.538;2023-06-14T00:10:22;19.20;99.90
48768;DHT22;34933;40.968;14.538;2023-06-14T00:13:07;19.20;99.90
48768;DHT22;34933;40.968;14.538;2023-06-14T00:15:52;19.20;99.90
48768;DHT22;34933;40.968;14.538;2023-06-14T00:18:39;19.30;99.90
48768;DHT22;34933;40.968;14.538;2023-06-14T00:21:23;19.30;99.90
48768;DHT22;34933;40.968;14.538;2023-06-14T00:24:08;19.30;99.90
48768;DHT22;34933;40.968;14.538;2023-06-14T00:26:53;19.30;99.90
48768;DHT22;34933;40.968;14.538;2023-06-14T00:29:37;19.40;99.90
48768;DHT22;34933;40.968;14.538;2023-06-14T00:32:22;19.50;99.90
48768;DHT22;34933;40.968;14.538;2023-06-14T00:35:10;19.50;99.90
48768;DHT22;34933;40.968;14.538;2023-06-14T00:37:54;19.50;99.90
48768;DHT22;34933;40.968;14.538;2023-06-14T00:40:39;19.60;99.90
48768;DHT22;34933;40.968;14.538;2023-06-14T00:43:24;19.60;99.90
48768;DHT22;34933;40.968;14.538;2023-06-14T00:46:09;19.60;99.90
48768;DHT22;34933;40.968;14.538;2023-06-14T00:48:56;19.60;99.90
48768;DHT22;34933;40.968;14.538;2023-06-14T00:51:41;19.60;99.90
48768;DHT22;34933;40.968;14.538;2023-06-14T00:54:26;19.60;99.90
48768;DHT22;34933;40.968;14.538;2023-06-14T00:57:11;19.60;99.90
48768;DHT22;34933;40.968;14.538;2023-06-14T00:59:56;19.60;99.90
48768;DHT22;34933;40.968;14.538;2023-06-14T01:02:41;19.60;99.90
48768;DHT22;34933;40.968;14.538;2023-06-14T01:05:27;19.60;99.90
48768;DHT22;34933;40.968;14.538;2023-06-14T01:08:21;19.60;99.90
48768;DHT22;34933;40.968;14.538;2023-06-14T01:11:18;19.60;99.90
48768;DHT22;34933;40.968;14.538;2023-06-14T01:14:05;19.70;99.90
48768;DHT22;34933;40.968;14.538;2023-06-14T01:16:52;19.80;99.90
48768;DHT22;34933;40.968;14.538;2023-06-14T01:19:39;19.70;99.90
48768;DHT22;34933;40.968;14.538;2023-06-14T01:22:28;19.80;99.90
48768;DHT22;34933;40.968;14.538;2023-06-14T01:25:14;19.80;99.90
48768;DHT22;34933;40.968;14.538;2023-06-14T01:28:03;19.80;99.90
48768;DHT22;34933;40.968;14.538;2023-06-14T01:30:53;19.80;99.90
48768;DHT22;34933;40.968;14.538;2023-06-14T01:33:38;19.90;99.90
48768;DHT22;34933;40.968;14.538;2023-06-14T01:36:25;19.80;99.90
48768;DHT22;34933;40.968;14.538;2023-06-14T01:39:15;19.80;99.90
48768;DHT22;34933;40.968;14.538;2023-06-14T01:42:01;19.90;99.90
48768;DHT22;34933;40.968;14.538;2023-06-14T01:44:48;19.80;99.90
48768;DHT22;34933;40.968;14.538;2023-06-14T01:47:34;19.80;99.90
48768;DHT22;34933;40.968;14.538;2023-06-14T01:50:20;19.80;99.90
48768;DHT22;34933;40.968;14.538;2023-06-14T01:53:09;19.80;99.90
48768;DHT22;34933;40.968;14.538;2023-06-14T01:55:55;19.80;99.90
48768;DHT22;34933;40.968;14.538;2023-06-14T01:58:40;19.80;99.90
48768;DHT22;34933;40.968;14.538;2023-06-14T02:01:25;19.90;99.90
48768;DHT22;34933;40.968;14.538;2023-06-14T02:04:11;19.90;99.90
48768;DHT22;34933;40.968;14.538;2023-06-14T02:06:55;19.90;99.90
48768;DHT22;34933;40.968;14.538;2023-06-14T02:09:41;19.90;99.90
48768;DHT22;34933;40.968;14.538;2023-06-14T02:12:25;19.90;99.90
48768;DHT22;34933;40.968;14.538;2023-06-14T02:15:10;19.90;99.90
48768;DHT22;34933;40.968;14.538;2023-06-14T02:18:02;20.00;99.90
48768;DHT22;34933;40.968;14.538;2023-06-14T02:20:47;20.00;99.90
48768;DHT22;34933;40.968;14.538;2023-06-14T02:23:32;20.00;99.90
48768;DHT22;34933;40.968;14.538;2023-06-14T02:26:17;19.90;99.90
48768;DHT22;34933;40.968;14.538;2023-06-14T02:29:01;19.90;99.90
48768;DHT22;34933;40.968;14.538;2023-06-14T02:31:46;19.80;99.90
48768;DHT22;34933;40.968;14.538;2023-06-14T02:34:33;19.90;99.90
48768;DHT22;34933;40.968;14.538;2023-06-14T02:37:18;19.80;99.90
48768;DHT22;34933;40.968;14.538;2023-06-14T02:40:03;19.70;99.90
48768;DHT22;34933;40.968;14.538;2023-06-14T02:42:49;19.60;99.90
48768;DHT22;34933;40.968;14.538;2023-06-14T02:45:34;19.60;99.90
48768;DHT22;34933;40.968;14.538;2023-06-14T02:48:19;19.60;99.90
48768;DHT22;34933;40.968;14.538;2023-06-14T02:51:04;19.60;99.90
48768;DHT22;34933;40.968;14.538;2023-06-14T02:53:50;19.60;99.90
48768;DHT22;34933;40.968;14.538;2023-06-14T02:56:35;19.60;99.90
48768;DHT22;34933;40.968;14.538;2023-06-14T02:59:20;19.60;99.90
48768;DHT22;34933;40.968;14.538;2023-06-14T03:02:06;19.60;99.90
48768;DHT22;34933;40.968;14.538;2023-06-14T03:04:52;19.50;99.90
48768;DHT22;34933;40.968;14.538;2023-06-14T03:07:38;19.40;99.90
48768;DHT22;34933;40.968;14.538;2023-06-14T03:10:29;19.30;99.90
48768;DHT22;34933;40.968;14.538;2023-06-14T03:13:15;19.20;99.90
48768;DHT22;34933;40.968;14.538;2023-06-14T03:16:05;19.20;99.90
48768;DHT22;34933;40.968;14.538;2023-06-14T03:18:54;19.10;99.90
48768;DHT22;34933;40.968;14.538;2023-06-14T03:21:38;19.10;99.90
48768;DHT22;34933;40.968;14.538;2023-06-14T03:24:28;19.10;99.90
48768;DHT22;34933;40.968;14.538;2023-06-14T03:27:14;19.10;99.90
48768;DHT22;34933;40.968;14.538;2023-06-14T03:30:02;19.10;99.90
48768;DHT22;34933;40.968;14.538;2023-06-14T03:32:49;19.10;99.90
48768;DHT22;34933;40.968;14.538;2023-06-14T03:35:36;19.00;99.90
48768;DHT22;34933;40.968;14.538;2023-06-14T03:38:21;19.00;99.90
48768;DHT22;34933;40.968;14.538;2023-06-14T03:41:07;19.00;99.90
48768;DHT22;34933;40.968;14.538;2023-06-14T03:43:52;19.00;99.90
48768;DHT22;34933;40.968;14.538;2023-06-14T03:46:37;19.00;99.90
48768;DHT22;34933;40.968;14.538;2023-06-14T03:49:21;19.10;99.90
48768;DHT22;34933;40.968;14.538;2023-06-14T03:52:06;19.10;99.90
48768;DHT22;34933;40.968;14.538;2023-06-14T03:54:53;19.10;99.90
48768;DHT22;34933;40.968;14.538;2023-06-14T03:57:38;19.10;99.90
48768;DHT22;34933;40.968;14.538;2023-06-14T04:00:27;19.20;99.90
48768;DHT22;34933;40.968;14.538;2023-06-14T04:03:12;19.30;99.90
48768;DHT22;34933;40.968;14.538;2023-06-14T04:06:00;19.30;99.90
48768;DHT22;34933;40.968;14.538;2023-06-14T04:08:45;19.40;99.90
48768;DHT22;34933;40.968;14.538;2023-06-14T04:11:30;19.40;99.90
48768;DHT22;34933;40.968;14.538;2023-06-14T04:14:16;19.50;99.90
48768;DHT22;34933;40.968;14.538;2023-06-14T04:17:01;19.50;99.90
48768;DHT22;34933;40.968;14.538;2023-06-14T04:19:46;19.40;99.90
48768;DHT22;34933;40.968;14.538;2023-06-14T04:22:32;19.40;99.90
48768;DHT22;34933;40.968;14.538;2023-06-14T04:25:17;19.40;99.90
48768;DHT22;34933;40.968;14.538;2023-06-14T04:28:02;19.40;99.90
48768;DHT22;34933;40.968;14.538;2023-06-14T04:30:47;19.50;99.90
48768;DHT22;34933;40.968;14.538;2023-06-14T04:33:36;19.50;99.90
48768;DHT22;34933;40.968;14.538;2023-06-14T04:36:30;19.50;99.90
48768;DHT22;34933;40.968;14.538;2023-06-14T04:39:16;19.60;99.90
48768;DHT22;34933;40.968;14.538;2023-06-14T04:42:04;19.60;99.90
48768;DHT22;34933;40.968;14.538;2023-06-14T04:44:48;19.50;99.90
48768;DHT22;34933;40.968;14.538;2023-06-14T04:47:33;19.60;99.90
48768;DHT22;34933;40.968;14.538;2023-06-14T04:50:18;19.60;99.90
48768;DHT22;34933;40.968;14.538;2023-06-14T04:53:05;19.70;99.90
48768;DHT22;34933;40.968;14.538;2023-06-14T04:55:51;19.70;99.90
48768;DHT22;34933;40.968;14.538;2023-06-14T04:58:38;19.80;99.90
48768;DHT22;34933;40.968;14.538;2023-06-14T05:01:23;19.80;99.90
48768;DHT22;34933;40.968;14.538;2023-06-14T05:04:07;20.00;99.90
48768;DHT22;34933;40.968;14.538;2023-06-14T05:06:53;20.20;99.90
48768;DHT22;34933;40.968;14.538;2023-06-14T05:09:40;20.30;99.90
48768;DHT22;34933;40.968;14.538;2023-06-14T05:12:24;20.50;99.90
48768;DHT22;34933;40.968;14.538;2023-06-14T05:15:09;20.70;99.90
48768;DHT22;34933;40.968;14.538;2023-06-14T05:17:55;20.80;99.90
48768;DHT22;34933;40.968;14.538;2023-06-14T05:20:40;21.00;99.90
48768;DHT22;34933;40.968;14.538;2023-06-14T05:23:25;21.00;99.90
48768;DHT22;34933;40.968;14.538;2023-06-14T05:26:10;21.20;99.90
48768;DHT22;34933;40.968;14.538;2023-06-14T05:28:58;21.40;99.90
48768;DHT22;34933;40.968;14.538;2023-06-14T05:31:44;21.50;99.90
48768;DHT22;34933;40.968;14.538;2023-06-14T05:34:29;21.60;99.90
48768;DHT22;34933;40.968;14.538;2023-06-14T05:37:14;21.70;99.90
48768;DHT22;34933;40.968;14.538;2023-06-14T05:39:58;21.80;99.90
48768;DHT22;34933;40.968;14.538;2023-06-14T05:42:43;21.90;99.90
48768;DHT22;34933;40.968;14.538;2023-06-14T05:45:28;22.10;99.90
48768;DHT22;34933;40.968;14.538;2023-06-14T05:48:13;22.20;99.90
48768;DHT22;34933;40.968;14.538;2023-06-14T05:50:58;22.30;99.90
48768;DHT22;34933;40.968;14.538;2023-06-14T05:53:42;22.40;99.90
48768;DHT22;34933;40.968;14.538;2023-06-14T05:56:27;22.70;99.90
48768;DHT22;34933;40.968;14.538;2023-06-14T05:59:11;22.70;99.90
48768;DHT22;34933;40.968;14.538;2023-06-14T06:01:56;23.00;99.90
48768;DHT22;34933;40.968;14.538;2023-06-14T06:04:41;23.10;99.90
48768;DHT22;34933;40.968;14.538;2023-06-14T06:07:25;23.20;99.90
48768;DHT22;34933;40.968;14.538;2023-06-14T06:10:10;23.40;99.90
48768;DHT22;34933;40.968;14.538;2023-06-14T06:12:55;23.50;99.90
48768;DHT22;34933;40.968;14.538;2023-06-14T06:15:41;23.60;99.90
48768;DHT22;34933;40.968;14.538;2023-06-14T06:18:25;23.80;99.90
48768;DHT22;34933;40.968;14.538;2023-06-14T06:21:10;23.90;99.90
48768;DHT22;34933;40.968;14.538;2023-06-14T06:23:54;24.10;99.90
48768;DHT22;34933;40.968;14.538;2023-06-14T06:26:39;24.10;99.90
48768;DHT22;34933;40.968;14.538;2023-06-14T06:29:24;24.20;99.90
48768;DHT22;34933;40.968;14.538;2023-06-14T06:32:09;24.10;99.90
48768;DHT22;34933;40.968;14.538;2023-06-14T06:34:53;24.00;99.90
48768;DHT22;34933;40.968;14.538;2023-06-14T06:37:38;24.00;99.90
48768;DHT22;34933;40.968;14.538;2023-06-14T06:40:22;24.00;99.90
48768;DHT22;34933;40.968;14.538;2023-06-14T06:43:07;24.00;99.90
48768;DHT22;34933;40.968;14.538;2023-06-14T06:45:59;24.10;99.90
48768;DHT22;34933;40.968;14.538;2023-06-14T06:48:44;24.10;99.90
48768;DHT22;34933;40.968;14.538;2023-06-14T06:51:28;24.20;99.90
48768;DHT22;34933;40.968;14.538;2023-06-14T06:54:13;24.20;99.90
48768;DHT22;34933;40.968;14.538;2023-06-14T06:56:58;24.30;99.90
48768;DHT22;34933;40.968;14.538;2023-06-14T06:59:42;24.20;99.90
48768;DHT22;34933;40.968;14.538;2023-06-14T07:02:27;24.30;99.90
48768;DHT22;34933;40.968;14.538;2023-06-14T07:05:12;24.50;99.90
48768;DHT22;34933;40.968;14.538;2023-06-14T07:07:57;24.70;99.90
48768;DHT22;34933;40.968;14.538;2023-06-14T07:10:41;24.90;99.90
48768;DHT22;34933;40.968;14.538;2023-06-14T07:13:26;25.10;99.90
48768;DHT22;34933;40.968;14.538;2023-06-14T07:16:11;25.20;99.90
48768;DHT22;34933;40.968;14.538;2023-06-14T07:18:55;25.30;99.90
48768;DHT22;34933;40.968;14.538;2023-06-14T07:21:41;25.30;99.90
48768;DHT22;34933;40.968;14.538;2023-06-14T07:24:26;25.30;99.90
48768;DHT22;34933;40.968;14.538;2023-06-14T07:27:12;25.40;99.90
48768;DHT22;34933;40.968;14.538;2023-06-14T07:29:57;25.30;99.90
48768;DHT22;34933;40.968;14.538;2023-06-14T07:32:42;25.40;99.90
48768;DHT22;34933;40.968;14.538;2023-06-14T07:35:26;25.50;99.90
48768;DHT22;34933;40.968;14.538;2023-06-14T07:38:11;25.50;99.90
48768;DHT22;34933;40.968;14.538;2023-06-14T07:40:55;25.30;99.90
48768;DHT22;34933;40.968;14.538;2023-06-14T07:43:40;25.30;99.90
48768;DHT22;34933;40.968;14.538;2023-06-14T07:46:25;25.40;99.90
48768;DHT22;34933;40.968;14.538;2023-06-14T07:49:10;25.50;99.90
48768;DHT22;34933;40.968;14.538;2023-06-14T07:51:54;25.70;99.90
48768;DHT22;34933;40.968;14.538;2023-06-14T07:54:39;25.80;99.90
48768;DHT22;34933;40.968;14.538;2023-06-14T07:57:24;25.80;99.90
48768;DHT22;34933;40.968;14.538;2023-06-14T08:00:10;26.00;99.90
48768;DHT22;34933;40.968;14.538;2023-06-14T08:02:59;26.10;99.90
48768;DHT22;34933;40.968;14.538;2023-06-14T08:05:43;26.10;99.90
48768;DHT22;34933;40.968;14.538;2023-06-14T08:08:28;26.10;99.90
48768;DHT22;34933;40.968;14.538;2023-06-14T08:11:13;26.00;99.90
48768;DHT22;34933;40.968;14.538;2023-06-14T08:13:57;26.20;99.90
48768;DHT22;34933;40.968;14.538;2023-06-14T08:16:42;26.30;99.90
48768;DHT22;34933;40.968;14.538;2023-06-14T08:19:27;26.40;99.90
48768;DHT22;34933;40.968;14.538;2023-06-14T08:22:11;26.50;99.90
48768;DHT22;34933;40.968;14.538;2023-06-14T08:24:56;26.50;99.90
48768;DHT22;34933;40.968;14.538;2023-06-14T08:27:41;26.60;99.90
48768;DHT22;34933;40.968;14.538;2023-06-14T08:30:26;26.60;99.90
48768;DHT22;34933;40.968;14.538;2023-06-14T08:33:10;26.80;99.90
48768;DHT22;34933;40.968;14.538;2023-06-14T08:35:55;26.80;99.90
48768;DHT22;34933;40.968;14.538;2023-06-14T08:38:39;27.00;99.90
48768;DHT22;34933;40.968;14.538;2023-06-14T08:41:24;27.10;99.90
48768;DHT22;34933;40.968;14.538;2023-06-14T08:44:09;27.10;99.90
48768;DHT22;34933;40.968;14.538;2023-06-14T08:46:56;27.10;99.90
48768;DHT22;34933;40.968;14.538;2023-06-14T08:49:46;27.10;99.90
48768;DHT22;34933;40.968;14.538;2023-06-14T08:52:33;27.10;99.90
48768;DHT22;34933;40.968;14.538;2023-06-14T08:55:25;27.40;99.90
48768;DHT22;34933;40.968;14.538;2023-06-14T08:58:12;27.60;99.90
48768;DHT22;34933;40.968;14.538;2023-06-14T09:00:58;27.70;99.90
48768;DHT22;34933;40.968;14.538;2023-06-14T09:03:44;27.70;99.90
48768;DHT22;34933;40.968;14.538;2023-06-14T09:06:29;27.80;99.90
48768;DHT22;34933;40.968;14.538;2023-06-14T09:09:14;28.00;99.90
48768;DHT22;34933;40.968;14.538;2023-06-14T09:11:59;28.20;99.90
48768;DHT22;34933;40.968;14.538;2023-06-14T09:14:43;28.50;99.90
48768;DHT22;34933;40.968;14.538;2023-06-14T09:17:28;28.40;99.90
48768;DHT22;34933;40.968;14.538;2023-06-14T09:20:13;28.60;99.90
48768;DHT22;34933;40.968;14.538;2023-06-14T09:23:03;28.80;99.90
48768;DHT22;34933;40.968;14.538;2023-06-14T09:25:50;28.50;99.90
48768;DHT22;34933;40.968;14.538;2023-06-14T09:28:35;28.60;99.90
48768;DHT22;34933;40.968;14.538;2023-06-14T09:31:20;28.80;99.90
48768;DHT22;34933;40.968;14.538;2023-06-14T09:34:05;28.90;99.90
48768;DHT22;34933;40.968;14.538;2023-06-14T09:36:49;29.20;99.90
48768;DHT22;34933;40.968;14.538;2023-06-14T09:39:34;29.20;99.90
48768;DHT22;34933;40.968;14.538;2023-06-14T09:42:19;29.50;99.90
48768;DHT22;34933;40.968;14.538;2023-06-14T09:45:04;29.70;99.90
48768;DHT22;34933;40.968;14.538;2023-06-14T09:47:50;30.00;99.90
48768;DHT22;34933;40.968;14.538;2023-06-14T09:50:35;30.40;99.90
48768;DHT22;34933;40.968;14.538;2023-06-14T09:53:21;30.40;99.90
48768;DHT22;34933;40.968;14.538;2023-06-14T09:56:10;30.00;99.90
48768;DHT22;34933;40.968;14.538;2023-06-14T09:58:57;29.90;99.90
48768;DHT22;34933;40.968;14.538;2023-06-14T10:01:43;29.70;99.90
48768;DHT22;34933;40.968;14.538;2023-06-14T10:04:30;29.60;99.90
48768;DHT22;34933;40.968;14.538;2023-06-14T10:07:20;30.00;99.90
48768;DHT22;34933;40.968;14.538;2023-06-14T10:10:06;30.30;99.90
48768;DHT22;34933;40.968;14.538;2023-06-14T10:12:51;30.50;99.90
48768;DHT22;34933;40.968;14.538;2023-06-14T10:24:52;30.20;99.90
48768;DHT22;34933;40.968;14.538;2023-06-14T10:27:38;30.00;99.90
48768;DHT22;34933;40.968;14.538;2023-06-14T10:30:25;29.90;99.90
48768;DHT22;34933;40.968;14.538;2023-06-14T10:33:10;29.60;99.90
48768;DHT22;34933;40.968;14.538;2023-06-14T10:36:30;29.60;99.90
48768;DHT22;34933;40.968;14.538;2023-06-14T10:39:17;29.50;99.90
48768;DHT22;34933;40.968;14.538;2023-06-14T10:42:02;29.60;99.90
48768;DHT22;34933;40.968;14.538;2023-06-14T10:44:52;29.90;99.90
48768;DHT22;34933;40.968;14.538;2023-06-14T10:47:39;30.20;99.90
48768;DHT22;34933;40.968;14.538;2023-06-14T10:50:28;30.20;99.90
48768;DHT22;34933;40.968;14.538;2023-06-14T10:53:23;30.40;99.90
48768;DHT22;34933;40.968;14.538;2023-06-14T10:56:08;30.20;99.90
48768;DHT22;34933;40.968;14.538;2023-06-14T10:58:52;30.10;99.90
48768;DHT22;34933;40.968;14.538;2023-06-14T11:01:40;29.80;99.90
48768;DHT22;34933;40.968;14.538;2023-06-14T11:07:55;29.40;99.90
48768;DHT22;34933;40.968;14.538;2023-06-14T11:10:43;29.30;99.90
48768;DHT22;34933;40.968;14.538;2023-06-14T11:13:29;29.20;99.90
48768;DHT22;34933;40.968;14.538;2023-06-14T11:16:16;29.00;99.90
48768;DHT22;34933;40.968;14.538;2023-06-14T11:19:01;28.80;99.90
48768;DHT22;34933;40.968;14.538;2023-06-14T11:21:48;28.90;99.90
48768;DHT22;34933;40.968;14.538;2023-06-14T11:24:33;29.20;99.90
48768;DHT22;34933;40.968;14.538;2023-06-14T11:27:17;29.20;99.90
48768;DHT22;34933;40.968;14.538;2023-06-14T11:30:02;28.90;99.90
48768;DHT22;34933;40.968;14.538;2023-06-14T11:32:48;28.70;99.90
48768;DHT22;34933;40.968;14.538;2023-06-14T11:35:34;28.60;99.90
48768;DHT22;34933;40.968;14.538;2023-06-14T11:38:19;28.40;99.90
48768;DHT22;34933;40.968;14.538;2023-06-14T11:41:04;28.20;99.90
48768;DHT22;34933;40.968;14.538;2023-06-14T11:43:52;28.30;99.90
48768;DHT22;34933;40.968;14.538;2023-06-14T11:46:37;28.00;99.90
48768;DHT22;34933;40.968;14.538;2023-06-14T11:49:23;27.90;99.90
48768;DHT22;34933;40.968;14.538;2023-06-14T11:52:09;27.80;99.90
48768;DHT22;34933;40.968;14.538;2023-06-14T11:54:53;27.80;99.90
48768;DHT22;34933;40.968;14.538;2023-06-14T11:57:38;27.80;99.90
48768;DHT22;34933;40.968;14.538;2023-06-14T12:00:26;27.80;99.90
48768;DHT22;34933;40.968;14.538;2023-06-14T12:03:12;27.60;99.90
48768;DHT22;34933;40.968;14.538;2023-06-14T12:06:07;27.70;99.90
48768;DHT22;34933;40.968;14.538;2023-06-14T12:08:56;27.50;99.90
48768;DHT22;34933;40.968;14.538;2023-06-14T12:11:41;27.60;99.90
48768;DHT22;34933;40.968;14.538;2023-06-14T12:14:32;27.60;99.90
48768;DHT22;34933;40.968;14.538;2023-06-14T12:17:17;27.70;99.90
48768;DHT22;34933;40.968;14.538;2023-06-14T12:20:09;27.70;99.90
48768;DHT22;34933;40.968;14.538;2023-06-14T12:22:57;27.80;99.90
48768;DHT22;34933;40.968;14.538;2023-06-14T12:25:42;28.20;99.90
48768;DHT22;34933;40.968;14.538;2023-06-14T12:28:31;28.30;99.90
48768;DHT22;34933;40.968;14.538;2023-06-14T12:31:16;28.90;99.90
48768;DHT22;34933;40.968;14.538;2023-06-14T12:34:01;29.40;99.90
48768;DHT22;34933;40.968;14.538;2023-06-14T12:36:45;29.50;99.90
48768;DHT22;34933;40.968;14.538;2023-06-14T12:39:30;29.40;99.90
48768;DHT22;34933;40.968;14.538;2023-06-14T12:42:18;29.70;99.90
48768;DHT22;34933;40.968;14.538;2023-06-14T12:45:04;30.00;99.90
48768;DHT22;34933;40.968;14.538;2023-06-14T12:47:48;29.90;99.90
48768;DHT22;34933;40.968;14.538;2023-06-14T12:50:33;29.80;99.90
48768;DHT22;34933;40.968;14.538;2023-06-14T12:53:17;29.80;99.90
48768;DHT22;34933;40.968;14.538;2023-06-14T12:56:02;29.70;99.90
48768;DHT22;34933;40.968;14.538;2023-06-14T12:58:46;29.60;99.90
48768;DHT22;34933;40.968;14.538;2023-06-14T13:01:31;29.10;99.90
48768;DHT22;34933;40.968;14.538;2023-06-14T13:04:16;28.90;99.90
48768;DHT22;34933;40.968;14.538;2023-06-14T13:07:00;29.10;99.90
48768;DHT22;34933;40.968;14.538;2023-06-14T13:09:45;29.10;99.90
48768;DHT22;34933;40.968;14.538;2023-06-14T13:12:30;28.80;99.90
48768;DHT22;34933;40.968;14.538;2023-06-14T13:15:14;28.60;99.90
48768;DHT22;34933;40.968;14.538;2023-06-14T13:17:59;28.50;99.90
48768;DHT22;34933;40.968;14.538;2023-06-14T13:20:45;28.40;99.90
48768;DHT22;34933;40.968;14.538;2023-06-14T13:23:30;28.50;99.90
48768;DHT22;34933;40.968;14.538;2023-06-14T13:26:15;28.70;99.90
48768;DHT22;34933;40.968;14.538;2023-06-14T13:29:00;28.80;99.90
48768;DHT22;34933;40.968;14.538;2023-06-14T13:31:45;29.70;99.90
48768;DHT22;34933;40.968;14.538;2023-06-14T13:34:29;30.30;99.90
48768;DHT22;34933;40.968;14.538;2023-06-14T13:37:14;32.10;99.90
48768;DHT22;34933;40.968;14.538;2023-06-14T13:39:59;33.20;99.90
48768;DHT22;34933;40.968;14.538;2023-06-14T13:42:43;33.50;99.90
48768;DHT22;34933;40.968;14.538;2023-06-14T13:45:28;33.60;99.90
48768;DHT22;34933;40.968;14.538;2023-06-14T13:48:13;33.40;99.90
48768;DHT22;34933;40.968;14.538;2023-06-14T13:51:00;32.80;99.90
48768;DHT22;34933;40.968;14.538;2023-06-14T13:53:48;32.50;99.90
48768;DHT22;34933;40.968;14.538;2023-06-14T13:56:33;32.70;99.90
48768;DHT22;34933;40.968;14.538;2023-06-14T13:59:18;33.10;99.90
48768;DHT22;34933;40.968;14.538;2023-06-14T14:02:02;32.80;99.90
48768;DHT22;34933;40.968;14.538;2023-06-14T14:04:48;32.60;99.90
48768;DHT22;34933;40.968;14.538;2023-06-14T14:07:36;32.50;99.90
48768;DHT22;34933;40.968;14.538;2023-06-14T14:10:23;32.20;99.90
48768;DHT22;34933;40.968;14.538;2023-06-14T14:13:09;31.80;99.90
48768;DHT22;34933;40.968;14.538;2023-06-14T14:15:53;31.50;99.90
48768;DHT22;34933;40.968;14.538;2023-06-14T14:18:39;31.20;99.90
48768;DHT22;34933;40.968;14.538;2023-06-14T14:21:23;30.60;99.90
48768;DHT22;34933;40.968;14.538;2023-06-14T14:24:08;30.20;99.90
48768;DHT22;34933;40.968;14.538;2023-06-14T14:26:53;29.70;99.90
48768;DHT22;34933;40.968;14.538;2023-06-14T14:29:37;29.20;99.90
48768;DHT22;34933;40.968;14.538;2023-06-14T14:32:22;28.80;99.90
48768;DHT22;34933;40.968;14.538;2023-06-14T14:35:07;28.60;99.90
48768;DHT22;34933;40.968;14.538;2023-06-14T14:37:52;28.60;99.90
48768;DHT22;34933;40.968;14.538;2023-06-14T14:40:37;28.60;99.90
48768;DHT22;34933;40.968;14.538;2023-06-14T14:43:21;28.80;99.90
48768;DHT22;34933;40.968;14.538;2023-06-14T14:46:06;28.90;99.90
48768;DHT22;34933;40.968;14.538;2023-06-14T14:48:50;28.90;99.90
48768;DHT22;34933;40.968;14.538;2023-06-14T14:51:35;28.80;99.90
48768;DHT22;34933;40.968;14.538;2023-06-14T14:54:22;28.90;99.90
48768;DHT22;34933;40.968;14.538;2023-06-14T14:57:07;28.90;99.90
48768;DHT22;34933;40.968;14.538;2023-06-14T14:59:52;28.80;99.90
48768;DHT22;34933;40.968;14.538;2023-06-14T15:02:37;28.70;99.90
48768;DHT22;34933;40.968;14.538;2023-06-14T15:05:22;28.50;99.90
48768;DHT22;34933;40.968;14.538;2023-06-14T15:08:07;28.10;99.90
48768;DHT22;34933;40.968;14.538;2023-06-14T15:10:55;27.90;99.90
48768;DHT22;34933;40.968;14.538;2023-06-14T15:13:40;27.40;99.90
48768;DHT22;34933;40.968;14.538;2023-06-14T15:16:24;26.80;99.90
48768;DHT22;34933;40.968;14.538;2023-06-14T15:19:09;26.30;99.90
48768;DHT22;34933;40.968;14.538;2023-06-14T15:21:53;25.70;99.90
48768;DHT22;34933;40.968;14.538;2023-06-14T15:24:38;24.90;99.90
48768;DHT22;34933;40.968;14.538;2023-06-14T15:27:23;24.20;99.90
48768;DHT22;34933;40.968;14.538;2023-06-14T15:30:09;23.40;99.90
48768;DHT22;34933;40.968;14.538;2023-06-14T15:32:54;23.00;99.90
48768;DHT22;34933;40.968;14.538;2023-06-14T15:35:39;22.60;99.90
48768;DHT22;34933;40.968;14.538;2023-06-14T15:38:23;22.20;99.90
48768;DHT22;34933;40.968;14.538;2023-06-14T15:41:08;21.50;99.90
48768;DHT22;34933;40.968;14.538;2023-06-14T15:43:53;21.00;99.90
48768;DHT22;34933;40.968;14.538;2023-06-14T15:46:37;20.80;99.90
48768;DHT22;34933;40.968;14.538;2023-06-14T15:49:22;20.90;99.90
48768;DHT22;34933;40.968;14.538;2023-06-14T15:52:07;21.00;99.90
48768;DHT22;34933;40.968;14.538;2023-06-14T15:54:52;21.00;99.90
48768;DHT22;34933;40.968;14.538;2023-06-14T15:57:36;21.00;99.90
48768;DHT22;34933;40.968;14.538;2023-06-14T16:00:21;21.10;99.90
48768;DHT22;34933;40.968;14.538;2023-06-14T16:03:06;21.10;99.90
48768;DHT22;34933;40.968;14.538;2023-06-14T16:05:51;21.20;99.90
48768;DHT22;34933;40.968;14.538;2023-06-14T16:08:35;21.10;99.90
48768;DHT22;34933;40.968;14.538;2023-06-14T16:11:20;20.90;99.90
48768;DHT22;34933;40.968;14.538;2023-06-14T16:14:04;21.00;99.90
48768;DHT22;34933;40.968;14.538;2023-06-14T16:16:49;21.10;99.90
48768;DHT22;34933;40.968;14.538;2023-06-14T16:21:20;21.10;99.90
48768;DHT22;34933;40.968;14.538;2023-06-14T16:24:05;21.10;99.90
48768;DHT22;34933;40.968;14.538;2023-06-14T16:26:51;21.20;99.90
48768;DHT22;34933;40.968;14.538;2023-06-14T16:29:39;21.20;99.90
48768;DHT22;34933;40.968;14.538;2023-06-14T16:32:24;21.00;99.90
48768;DHT22;34933;40.968;14.538;2023-06-14T16:35:08;21.00;99.90
48768;DHT22;34933;40.968;14.538;2023-06-14T16:37:53;20.90;99.90
48768;DHT22;34933;40.968;14.538;2023-06-14T16:40:38;20.90;99.90
48768;DHT22;34933;40.968;14.538;2023-06-14T16:43:22;20.90;99.90
48768;DHT22;34933;40.968;14.538;2023-06-14T16:46:07;21.00;99.90
48768;DHT22;34933;40.968;14.538;2023-06-14T16:48:51;21.10;99.90
48768;DHT22;34933;40.968;14.538;2023-06-14T16:51:36;21.00;99.90
48768;DHT22;34933;40.968;14.538;2023-06-14T16:54:21;21.00;99.90
48768;DHT22;34933;40.968;14.538;2023-06-14T16:57:05;21.00;99.90
48768;DHT22;34933;40.968;14.538;2023-06-14T16:59:50;20.90;99.90
48768;DHT22;34933;40.968;14.538;2023-06-14T17:02:35;20.90;99.90
48768;DHT22;34933;40.968;14.538;2023-06-14T17:08:15;21.00;99.90
48768;DHT22;34933;40.968;14.538;2023-06-14T17:11:00;21.10;99.90
48768;DHT22;34933;40.968;14.538;2023-06-14T17:13:44;21.10;99.90
48768;DHT22;34933;40.968;14.538;2023-06-14T17:16:29;21.10;99.90
48768;DHT22;34933;40.968;14.538;2023-06-14T17:19:14;21.10;99.90
48768;DHT22;34933;40.968;14.538;2023-06-14T17:21:58;21.00;99.90
48768;DHT22;34933;40.968;14.538;2023-06-14T17:24:43;21.10;99.90
48768;DHT22;34933;40.968;14.538;2023-06-14T17:27:28;21.10;99.90